Wetterdaten: aktuell Dienstag, 23.01.2018 18:55
Datum Zeit Temp. I. Temp. A. Feuchte I. Feuchte A. Luftdruck Regen Wind Richtung Richtung Taupunkt Windchill Windben
23.01.2018 18:55 7,7 C 6,8 C 76 % 83 % 1022,6 hPa 0,0 l/m 17,7 km/h SW 225 4,1 C 0,1 C 25,7 km/h
23.01.2018 18:50 7,7 C 6,8 C 76 % 83 % 1022,6 hPa 0,0 l/m 17,7 km/h SW 225 4,1 C 0,1 C 24,1 km/h
23.01.2018 18:45 7,6 C 6,7 C 76 % 83 % 1022,5 hPa 0,0 l/m 17,7 km/h SW 225 4,0 C -0,1 C 24,1 km/h
23.01.2018 18:40 7,7 C 6,8 C 76 % 83 % 1022,7 hPa 0,0 l/m 16,1 km/h SW 225 4,1 C 0,7 C 24,1 km/h
23.01.2018 18:35 7,7 C 6,8 C 76 % 83 % 1022,7 hPa 0,0 l/m 17,7 km/h SW 225 4,1 C 0,1 C 24,1 km/h
23.01.2018 18:30 7,7 C 6,8 C 76 % 83 % 1022,7 hPa 0,0 l/m 17,7 km/h SW 225 4,1 C 0,1 C 27,4 km/h
23.01.2018 18:25 7,7 C 6,8 C 76 % 83 % 1022,6 hPa 0,0 l/m 19,3 km/h SW 225 4,1 C -0,6 C 25,7 km/h
23.01.2018 18:20 7,7 C 6,8 C 76 % 83 % 1022,6 hPa 0,0 l/m 20,9 km/h SW 225 4,1 C -1,2 C 32,2 km/h
23.01.2018 18:15 7,7 C 6,8 C 76 % 84 % 1022,5 hPa 0,0 l/m 17,7 km/h SW 225 4,3 C 0,1 C 27,4 km/h
23.01.2018 18:10 7,7 C 6,8 C 76 % 84 % 1022,6 hPa 0,0 l/m 17,7 km/h SW 225 4,3 C 0,1 C 25,7 km/h
23.01.2018 18:05 7,7 C 6,8 C 76 % 84 % 1022,6 hPa 0,0 l/m 19,3 km/h SW 225 4,3 C -0,6 C 27,4 km/h
23.01.2018 18:00 7,7 C 6,7 C 76 % 84 % 1022,7 hPa 0,0 l/m 19,3 km/h SW 225 4,2 C -0,7 C 24,1 km/h
23.01.2018 17:55 7,7 C 6,7 C 76 % 84 % 1022,5 hPa 0,0 l/m 17,7 km/h SW 225 4,2 C -0,1 C 24,1 km/h
23.01.2018 17:50 7,7 C 6,6 C 76 % 85 % 1022,5 hPa 0,0 l/m 14,5 km/h SW 225 4,3 C 1,3 C 22,5 km/h
23.01.2018 17:45 7,7 C 6,6 C 76 % 85 % 1022,5 hPa 0,0 l/m 16,1 km/h SW 225 4,3 C 0,5 C 22,5 km/h
23.01.2018 17:40 7,7 C 6,6 C 76 % 85 % 1022,5 hPa 0,0 l/m 12,9 km/h SW 225 4,3 C 2,1 C 22,5 km/h
23.01.2018 17:35 7,8 C 6,7 C 76 % 84 % 1022,6 hPa 0,0 l/m 17,7 km/h SW 225 4,2 C -0,1 C 24,1 km/h
23.01.2018 17:30 7,8 C 6,7 C 76 % 84 % 1022,5 hPa 0,0 l/m 16,1 km/h S-SW 202 4,2 C 0,6 C 24,1 km/h
23.01.2018 17:25 7,8 C 6,6 C 76 % 85 % 1022,4 hPa 0,0 l/m 17,7 km/h SW 225 4,3 C -0,2 C 24,1 km/h
23.01.2018 17:20 7,8 C 6,6 C 76 % 85 % 1022,6 hPa 0,0 l/m 12,9 km/h S-SW 202 4,3 C 2,1 C 25,7 km/h
23.01.2018 17:15 7,9 C 6,6 C 76 % 85 % 1022,6 hPa 0,0 l/m 16,1 km/h SW 225 4,3 C 0,5 C 22,5 km/h
23.01.2018 17:10 7,9 C 6,6 C 76 % 85 % 1022,7 hPa 0,0 l/m 16,1 km/h SW 225 4,3 C 0,5 C 25,7 km/h
23.01.2018 17:05 7,9 C 6,6 C 76 % 85 % 1022,6 hPa 0,0 l/m 14,5 km/h SW 225 4,3 C 1,3 C 22,5 km/h
23.01.2018 17:00 8,0 C 6,6 C 76 % 85 % 1022,8 hPa 0,0 l/m 14,5 km/h SW 225 4,3 C 1,3 C 20,9 km/h
23.01.2018 16:55 8,1 C 6,6 C 76 % 85 % 1022,8 hPa 0,0 l/m 16,1 km/h SW 225 4,3 C 0,5 C 20,9 km/h
23.01.2018 16:50 8,1 C 6,6 C 75 % 85 % 1022,8 hPa 0,0 l/m 14,5 km/h SW 225 4,3 C 1,3 C 22,5 km/h
23.01.2018 16:45 8,1 C 6,7 C 75 % 85 % 1022,9 hPa 0,0 l/m 16,1 km/h SW 225 4,4 C 0,6 C 20,9 km/h
23.01.2018 16:40 8,2 C 6,7 C 75 % 85 % 1022,8 hPa 0,0 l/m 19,3 km/h S-SW 202 4,4 C -0,7 C 27,4 km/h
23.01.2018 16:35 8,2 C 6,7 C 75 % 85 % 1022,8 hPa 0,0 l/m 16,1 km/h S-SW 202 4,4 C 0,6 C 22,5 km/h
23.01.2018 16:30 8,2 C 6,6 C 75 % 85 % 1022,7 hPa 0,0 l/m 14,5 km/h S-SW 202 4,3 C 1,3 C 20,9 km/h
23.01.2018 16:25 8,2 C 6,6 C 75 % 85 % 1022,9 hPa 0,0 l/m 12,9 km/h SW 225 4,3 C 2,1 C 19,3 km/h
23.01.2018 16:20 8,3 C 6,6 C 75 % 86 % 1022,8 hPa 0,0 l/m 14,5 km/h SW 225 4,4 C 1,3 C 20,9 km/h
23.01.2018 16:15 8,3 C 6,7 C 75 % 85 % 1022,9 hPa 0,0 l/m 16,1 km/h SW 225 4,4 C 0,6 C 24,1 km/h
23.01.2018 16:10 8,3 C 6,6 C 75 % 85 % 1023,0 hPa 0,0 l/m 16,1 km/h SW 225 4,3 C 0,5 C 24,1 km/h
23.01.2018 16:05 8,4 C 6,7 C 75 % 85 % 1023,0 hPa 0,0 l/m 16,1 km/h SW 225 4,4 C 0,6 C 24,1 km/h
23.01.2018 16:00 8,4 C 6,6 C 75 % 85 % 1023,1 hPa 0,0 l/m 16,1 km/h SW 225 4,3 C 0,5 C 20,9 km/h
23.01.2018 15:55 8,4 C 6,6 C 74 % 85 % 1023,0 hPa 0,0 l/m 17,7 km/h SW 225 4,3 C -0,2 C 22,5 km/h
23.01.2018 15:50 8,4 C 6,7 C 74 % 85 % 1023,0 hPa 0,0 l/m 14,5 km/h SW 225 4,4 C 1,4 C 19,3 km/h
23.01.2018 15:45 8,5 C 6,7 C 74 % 84 % 1023,0 hPa 0,0 l/m 19,3 km/h SW 225 4,2 C -0,7 C 25,7 km/h
23.01.2018 15:40 8,5 C 6,7 C 74 % 84 % 1023,0 hPa 0,0 l/m 17,7 km/h SW 225 4,2 C -0,1 C 27,4 km/h
23.01.2018 15:35 8,6 C 6,7 C 74 % 84 % 1023,0 hPa 0,0 l/m 16,1 km/h SW 225 4,2 C 0,6 C 22,5 km/h
23.01.2018 15:30 8,6 C 6,7 C 74 % 83 % 1023,0 hPa 0,0 l/m 16,1 km/h SW 225 4,0 C 0,6 C 22,5 km/h
23.01.2018 15:25 8,6 C 6,7 C 74 % 83 % 1023,0 hPa 0,0 l/m 12,9 km/h SW 225 4,0 C 2,2 C 19,3 km/h
23.01.2018 15:20 8,6 C 6,7 C 74 % 83 % 1023,1 hPa 0,0 l/m 11,3 km/h SW 225 4,0 C 3,1 C 19,3 km/h
23.01.2018 15:15 8,6 C 6,7 C 74 % 83 % 1023,1 hPa 0,0 l/m 11,3 km/h SW 225 4,0 C 3,1 C 17,7 km/h
23.01.2018 15:10 8,6 C 6,7 C 74 % 82 % 1023,1 hPa 0,0 l/m 16,1 km/h SW 225 3,8 C 0,6 C 25,7 km/h
23.01.2018 15:05 8,7 C 6,7 C 74 % 82 % 1023,2 hPa 0,0 l/m 16,1 km/h SW 225 3,8 C 0,6 C 20,9 km/h
23.01.2018 15:00 8,7 C 6,7 C 74 % 82 % 1023,2 hPa 0,0 l/m 16,1 km/h SW 225 3,8 C 0,6 C 24,1 km/h
23.01.2018 14:55 8,7 C 6,8 C 74 % 82 % 1023,2 hPa 0,0 l/m 16,1 km/h SW 225 3,9 C 0,7 C 25,7 km/h
23.01.2018 14:50 8,8 C 6,8 C 74 % 82 % 1023,3 hPa 0,0 l/m 12,9 km/h SW 225 3,9 C 2,3 C 20,9 km/h
23.01.2018 14:45 8,9 C 6,8 C 74 % 82 % 1023,2 hPa 0,0 l/m 16,1 km/h SW 225 3,9 C 0,7 C 22,5 km/h
23.01.2018 14:40 8,9 C 6,8 C 73 % 82 % 1023,2 hPa 0,0 l/m 14,5 km/h SW 225 3,9 C 1,5 C 22,5 km/h
23.01.2018 14:35 9,0 C 6,8 C 73 % 82 % 1023,3 hPa 0,0 l/m 11,3 km/h SW 225 3,9 C 3,2 C 19,3 km/h
23.01.2018 14:30 9,1 C 6,8 C 73 % 82 % 1023,2 hPa 0,0 l/m 14,5 km/h SW 225 3,9 C 1,5 C 20,9 km/h
23.01.2018 14:25 9,1 C 6,8 C 74 % 82 % 1023,1 hPa 0,0 l/m 14,5 km/h SW 225 3,9 C 1,5 C 22,5 km/h
23.01.2018 14:20 9,1 C 6,8 C 74 % 82 % 1023,2 hPa 0,0 l/m 14,5 km/h SW 225 3,9 C 1,5 C 20,9 km/h
23.01.2018 14:15 9,0 C 6,7 C 74 % 83 % 1023,2 hPa 0,0 l/m 12,9 km/h SW 225 4,0 C 2,2 C 19,3 km/h
23.01.2018 14:10 9,0 C 6,7 C 74 % 83 % 1023,2 hPa 0,0 l/m 14,5 km/h S-SW 202 4,0 C 1,4 C 20,9 km/h
23.01.2018 14:05 9,0 C 6,7 C 74 % 84 % 1023,3 hPa 0,0 l/m 11,3 km/h S-SW 202 4,2 C 3,1 C 17,7 km/h
23.01.2018 14:00 9,0 C 6,6 C 74 % 84 % 1023,4 hPa 0,0 l/m 12,9 km/h S-SW 202 4,1 C 2,1 C 19,3 km/h
23.01.2018 13:55 8,9 C 6,6 C 74 % 85 % 1023,4 hPa 0,0 l/m 11,3 km/h S-SW 202 4,3 C 3,0 C 17,7 km/h
23.01.2018 13:50 8,9 C 6,6 C 75 % 85 % 1023,5 hPa 0,0 l/m 11,3 km/h SW 225 4,3 C 3,0 C 17,7 km/h
23.01.2018 13:45 8,9 C 6,5 C 75 % 85 % 1023,7 hPa 0,0 l/m 12,9 km/h SW 225 4,2 C 2,0 C 17,7 km/h
23.01.2018 13:40 8,8 C 6,4 C 75 % 85 % 1023,7 hPa 0,0 l/m 11,3 km/h S-SW 202 4,1 C 2,8 C 19,3 km/h
23.01.2018 13:35 8,7 C 6,4 C 75 % 86 % 1023,6 hPa 0,0 l/m 12,9 km/h S-SW 202 4,2 C 1,9 C 17,7 km/h
23.01.2018 13:30 8,7 C 6,3 C 75 % 87 % 1023,8 hPa 0,0 l/m 11,3 km/h S-SW 202 4,3 C 2,7 C 17,7 km/h
23.01.2018 13:25 8,6 C 6,3 C 76 % 86 % 1023,9 hPa 0,0 l/m 11,3 km/h S-SW 202 4,1 C 2,7 C 16,1 km/h
23.01.2018 13:20 8,5 C 6,2 C 76 % 87 % 1024,0 hPa 0,0 l/m 11,3 km/h SW 225 4,2 C 2,6 C 17,7 km/h
23.01.2018 13:15 8,4 C 6,1 C 76 % 87 % 1024,1 hPa 0,0 l/m 11,3 km/h SW 225 4,1 C 2,4 C 17,7 km/h
23.01.2018 13:10 8,4 C 6,1 C 76 % 88 % 1024,0 hPa 0,0 l/m 11,3 km/h SW 225 4,3 C 2,4 C 17,7 km/h
23.01.2018 13:05 8,4 C 6,1 C 76 % 89 % 1023,9 hPa 0,0 l/m 9,7 km/h SW 225 4,4 C 3,5 C 16,1 km/h
23.01.2018 13:00 8,5 C 6,0 C 76 % 89 % 1024,0 hPa 0,0 l/m 14,5 km/h SW 225 4,3 C 0,5 C 20,9 km/h
23.01.2018 12:55 8,5 C 6,0 C 76 % 88 % 1024,1 hPa 0,0 l/m 14,5 km/h SW 225 4,2 C 0,5 C 20,9 km/h
23.01.2018 12:50 8,5 C 5,9 C 76 % 89 % 1024,2 hPa 0,0 l/m 11,3 km/h SW 225 4,2 C 2,2 C 17,7 km/h
23.01.2018 12:45 8,4 C 5,9 C 76 % 89 % 1024,2 hPa 0,0 l/m 12,9 km/h SW 225 4,2 C 1,3 C 17,7 km/h
23.01.2018 12:40 8,4 C 5,8 C 76 % 89 % 1024,2 hPa 0,0 l/m 14,5 km/h SW 225 4,1 C 0,3 C 19,3 km/h
23.01.2018 12:35 8,4 C 5,8 C 76 % 89 % 1024,2 hPa 0,0 l/m 9,7 km/h SW 225 4,1 C 3,2 C 16,1 km/h
23.01.2018 12:30 8,4 C 5,8 C 76 % 89 % 1024,2 hPa 0,0 l/m 11,3 km/h SW 225 4,1 C 2,1 C 17,7 km/h
23.01.2018 12:25 8,5 C 5,7 C 76 % 89 % 1024,1 hPa 0,0 l/m 12,9 km/h SW 225 4,0 C 1,0 C 17,7 km/h
23.01.2018 12:20 8,5 C 5,7 C 76 % 90 % 1024,2 hPa 0,0 l/m 9,7 km/h SW 225 4,2 C 3,1 C 17,7 km/h
23.01.2018 12:15 8,4 C 5,7 C 76 % 90 % 1024,3 hPa 0,0 l/m 11,3 km/h SW 225 4,2 C 2,0 C 17,7 km/h
23.01.2018 12:10 8,3 C 5,6 C 76 % 90 % 1024,4 hPa 0,0 l/m 9,7 km/h SW 225 4,1 C 2,9 C 17,7 km/h
23.01.2018 12:05 8,3 C 5,5 C 76 % 90 % 1024,4 hPa 0,0 l/m 8,0 km/h SW 225 4,0 C 4,1 C 16,1 km/h
23.01.2018 12:00 8,2 C 5,4 C 76 % 90 % 1024,4 hPa 0,0 l/m 8,0 km/h SW 225 3,9 C 4,0 C 12,9 km/h
23.01.2018 11:55 8,2 C 5,4 C 76 % 91 % 1024,4 hPa 0,0 l/m 6,4 km/h SW 225 4,1 C 5,4 C 14,5 km/h
23.01.2018 11:50 8,1 C 5,3 C 77 % 91 % 1024,4 hPa 0,0 l/m 8,0 km/h S-SW 202 4,0 C 3,9 C 12,9 km/h
23.01.2018 11:45 8,1 C 5,3 C 77 % 91 % 1024,4 hPa 0,0 l/m 6,4 km/h SW 225 4,0 C 5,3 C 12,9 km/h
23.01.2018 11:40 8,0 C 5,2 C 77 % 91 % 1024,5 hPa 0,0 l/m 4,8 km/h SW 225 3,9 C 5,2 C 8,0 km/h
23.01.2018 11:35 7,9 C 5,2 C 77 % 91 % 1024,4 hPa 0,0 l/m 6,4 km/h SW 225 3,9 C 5,2 C 8,0 km/h
23.01.2018 11:30 7,9 C 5,2 C 77 % 91 % 1024,5 hPa 0,0 l/m 6,4 km/h SW 225 3,9 C 5,2 C 9,7 km/h
23.01.2018 11:25 7,9 C 5,1 C 77 % 91 % 1024,4 hPa 0,0 l/m 8,0 km/h SW 225 3,8 C 3,7 C 11,3 km/h
23.01.2018 11:20 7,9 C 5,1 C 77 % 91 % 1024,5 hPa 0,0 l/m 9,7 km/h SW 225 3,8 C 2,4 C 14,5 km/h
23.01.2018 11:15 7,9 C 5,1 C 77 % 91 % 1024,4 hPa 0,0 l/m 8,0 km/h SW 225 3,8 C 3,7 C 12,9 km/h
23.01.2018 11:10 7,8 C 4,9 C 77 % 92 % 1024,5 hPa 0,0 l/m 8,0 km/h W-SW 247 3,7 C 3,5 C 16,1 km/h
23.01.2018 11:05 7,8 C 4,9 C 77 % 92 % 1024,5 hPa 0,0 l/m 8,0 km/h W-SW 247 3,7 C 3,5 C 11,3 km/h
23.01.2018 11:00 7,8 C 4,9 C 77 % 92 % 1024,4 hPa 0,0 l/m 6,4 km/h SW 225 3,7 C 4,9 C 11,3 km/h
23.01.2018 10:55 7,8 C 4,8 C 77 % 92 % 1024,4 hPa 0,0 l/m 6,4 km/h SW 225 3,6 C 4,8 C 9,7 km/h
23.01.2018 10:50 7,8 C 4,8 C 77 % 92 % 1024,2 hPa 0,0 l/m 8,0 km/h SW 225 3,6 C 3,4 C 14,5 km/h
23.01.2018 10:45 7,8 C 4,7 C 77 % 93 % 1024,2 hPa 0,0 l/m 6,4 km/h SW 225 3,7 C 4,7 C 11,3 km/h
23.01.2018 10:40 7,9 C 4,7 C 77 % 93 % 1024,2 hPa 0,0 l/m 6,4 km/h SW 225 3,7 C 4,7 C 8,0 km/h
23.01.2018 10:35 7,9 C 4,7 C 77 % 93 % 1024,2 hPa 0,0 l/m 8,0 km/h W-SW 247 3,7 C 3,3 C 12,9 km/h
23.01.2018 10:30 8,0 C 4,6 C 77 % 93 % 1024,1 hPa 0,0 l/m 8,0 km/h W-SW 247 3,6 C 3,2 C 12,9 km/h
23.01.2018 10:25 8,1 C 4,6 C 77 % 93 % 1024,1 hPa 0,0 l/m 8,0 km/h W-SW 247 3,6 C 3,2 C 11,3 km/h
23.01.2018 10:20 8,2 C 4,5 C 77 % 93 % 1024,1 hPa 0,0 l/m 8,0 km/h W-SW 247 3,5 C 3,1 C 12,9 km/h
23.01.2018 10:15 8,2 C 4,4 C 77 % 94 % 1024,2 hPa 0,0 l/m 8,0 km/h W-SW 247 3,5 C 3,0 C 12,9 km/h
23.01.2018 10:10 8,4 C 4,4 C 76 % 94 % 1024,2 hPa 0,0 l/m 6,4 km/h W-SW 247 3,5 C 4,4 C 9,7 km/h
23.01.2018 10:05 8,5 C 4,3 C 76 % 94 % 1024,2 hPa 0,0 l/m 4,8 km/h W-SW 247 3,4 C 4,3 C 8,0 km/h
23.01.2018 10:00 8,6 C 4,3 C 77 % 94 % 1024,2 hPa 0,0 l/m 4,8 km/h W-SW 247 3,4 C 4,3 C 6,4 km/h
23.01.2018 09:55 8,6 C 4,3 C 77 % 94 % 1024,0 hPa 0,0 l/m 4,8 km/h SW 225 3,4 C 4,3 C 6,4 km/h
23.01.2018 09:50 8,4 C 4,4 C 77 % 94 % 1024,0 hPa 0,0 l/m 4,8 km/h SW 225 3,5 C 4,4 C 6,4 km/h
23.01.2018 09:45 8,2 C 4,4 C 78 % 93 % 1023,8 hPa 0,0 l/m 4,8 km/h SW 225 3,4 C 4,4 C 8,0 km/h
23.01.2018 09:40 8,0 C 4,4 C 78 % 93 % 1023,8 hPa 0,0 l/m 6,4 km/h SW 225 3,4 C 4,4 C 11,3 km/h
23.01.2018 09:35 7,8 C 4,4 C 78 % 93 % 1023,7 hPa 0,0 l/m 8,0 km/h SW 225 3,4 C 3,0 C 11,3 km/h
23.01.2018 09:30 7,8 C 4,4 C 78 % 93 % 1023,8 hPa 0,0 l/m 8,0 km/h SW 225 3,4 C 3,0 C 9,7 km/h
23.01.2018 09:25 7,9 C 4,4 C 78 % 93 % 1023,7 hPa 0,0 l/m 9,7 km/h SW 225 3,4 C 1,6 C 14,5 km/h
23.01.2018 09:20 8,0 C 4,3 C 78 % 94 % 1023,7 hPa 0,0 l/m 11,3 km/h SW 225 3,4 C 0,4 C 16,1 km/h
23.01.2018 09:15 8,1 C 4,3 C 78 % 94 % 1023,6 hPa 0,0 l/m 9,7 km/h SW 225 3,4 C 1,5 C 16,1 km/h
23.01.2018 09:10 7,9 C 4,3 C 79 % 94 % 1023,5 hPa 0,0 l/m 9,7 km/h SW 225 3,4 C 1,5 C 16,1 km/h
23.01.2018 09:05 7,7 C 4,2 C 79 % 94 % 1023,5 hPa 0,0 l/m 11,3 km/h W-SW 247 3,3 C 0,3 C 14,5 km/h
23.01.2018 09:00 7,5 C 4,2 C 79 % 94 % 1023,3 hPa 0,0 l/m 12,9 km/h W-SW 247 3,3 C -0,7 C 16,1 km/h
23.01.2018 08:55 7,4 C 4,2 C 79 % 94 % 1023,3 hPa 0,0 l/m 12,9 km/h W-SW 247 3,3 C -0,7 C 17,7 km/h
23.01.2018 08:50 7,4 C 4,3 C 79 % 94 % 1023,3 hPa 0,0 l/m 17,7 km/h W-SW 247 3,4 C -3,1 C 20,9 km/h
23.01.2018 08:45 7,5 C 4,2 C 79 % 94 % 1023,3 hPa 0,0 l/m 16,1 km/h W-SW 247 3,3 C -2,5 C 19,3 km/h
23.01.2018 08:40 7,6 C 4,2 C 79 % 94 % 1023,1 hPa 0,0 l/m 14,5 km/h W-SW 247 3,3 C -1,6 C 17,7 km/h
23.01.2018 08:35 7,6 C 4,2 C 80 % 94 % 1023,1 hPa 0,0 l/m 14,5 km/h W-SW 247 3,3 C -1,6 C 17,7 km/h
23.01.2018 08:30 7,3 C 4,2 C 80 % 94 % 1023,1 hPa 0,0 l/m 12,9 km/h W-SW 247 3,3 C -0,7 C 17,7 km/h
23.01.2018 08:25 7,1 C 4,2 C 81 % 94 % 1023,2 hPa 0,0 l/m 14,5 km/h W-SW 247 3,3 C -1,6 C 17,7 km/h
23.01.2018 08:20 6,9 C 4,2 C 81 % 95 % 1023,2 hPa 0,0 l/m 14,5 km/h W-SW 247 3,5 C -1,6 C 19,3 km/h
23.01.2018 08:15 6,7 C 4,3 C 82 % 94 % 1023,2 hPa 0,0 l/m 16,1 km/h W-SW 247 3,4 C -2,3 C 20,9 km/h
23.01.2018 08:10 6,4 C 4,3 C 82 % 94 % 1023,0 hPa 0,0 l/m 16,1 km/h W-SW 247 3,4 C -2,3 C 19,3 km/h
23.01.2018 08:05 6,1 C 4,3 C 82 % 95 % 1023,0 hPa 0,0 l/m 16,1 km/h W-SW 247 3,6 C -2,3 C 20,9 km/h
23.01.2018 08:00 5,9 C 4,3 C 82 % 95 % 1023,0 hPa 0,0 l/m 17,7 km/h W-SW 247 3,6 C -3,1 C 20,9 km/h
23.01.2018 07:55 5,8 C 4,3 C 82 % 95 % 1022,8 hPa 0,0 l/m 17,7 km/h W-SW 247 3,6 C -3,1 C 20,9 km/h
23.01.2018 07:50 5,8 C 4,3 C 82 % 95 % 1022,8 hPa 0,0 l/m 17,7 km/h W-SW 247 3,6 C -3,1 C 24,1 km/h
23.01.2018 07:45 5,8 C 4,3 C 82 % 95 % 1022,7 hPa 0,0 l/m 17,7 km/h W-SW 247 3,6 C -3,1 C 22,5 km/h
23.01.2018 07:40 5,8 C 4,3 C 82 % 95 % 1022,6 hPa 0,0 l/m 16,1 km/h SW 225 3,6 C -2,3 C 19,3 km/h
23.01.2018 07:35 5,8 C 4,3 C 82 % 95 % 1022,6 hPa 0,0 l/m 17,7 km/h SW 225 3,6 C -3,1 C 22,5 km/h
23.01.2018 07:30 5,9 C 4,3 C 82 % 95 % 1022,6 hPa 0,0 l/m 19,3 km/h W-SW 247 3,6 C -3,8 C 22,5 km/h
23.01.2018 07:25 5,8 C 4,3 C 82 % 95 % 1022,6 hPa 0,0 l/m 19,3 km/h W-SW 247 3,6 C -3,8 C 22,5 km/h
23.01.2018 07:20 5,9 C 4,3 C 82 % 95 % 1022,5 hPa 0,0 l/m 16,1 km/h W-SW 247 3,6 C -2,3 C 22,5 km/h
23.01.2018 07:15 5,9 C 4,4 C 82 % 95 % 1022,5 hPa 0,0 l/m 11,3 km/h W-SW 247 3,7 C 0,5 C 17,7 km/h
23.01.2018 07:10 5,9 C 4,3 C 82 % 95 % 1022,4 hPa 0,0 l/m 14,5 km/h W-SW 247 3,6 C -1,5 C 20,9 km/h
23.01.2018 07:05 5,9 C 4,2 C 82 % 95 % 1022,4 hPa 0,0 l/m 12,9 km/h W-SW 247 3,5 C -0,7 C 17,7 km/h
23.01.2018 07:00 5,9 C 4,2 C 82 % 96 % 1022,2 hPa 0,0 l/m 14,5 km/h W-SW 247 3,6 C -1,6 C 17,7 km/h
23.01.2018 06:55 5,9 C 4,2 C 82 % 95 % 1022,2 hPa 0,0 l/m 14,5 km/h W-SW 247 3,5 C -1,6 C 19,3 km/h
23.01.2018 06:50 5,9 C 4,3 C 82 % 95 % 1022,1 hPa 0,0 l/m 16,1 km/h W-SW 247 3,6 C -2,3 C 19,3 km/h
23.01.2018 06:45 5,9 C 4,2 C 82 % 96 % 1022,1 hPa 0,0 l/m 16,1 km/h W-SW 247 3,6 C -2,5 C 22,5 km/h
23.01.2018 06:40 5,9 C 4,2 C 82 % 96 % 1022,0 hPa 0,0 l/m 16,1 km/h W-SW 247 3,6 C -2,5 C 19,3 km/h
23.01.2018 06:35 5,9 C 4,3 C 82 % 96 % 1022,0 hPa 0,0 l/m 14,5 km/h W-SW 247 3,7 C -1,5 C 19,3 km/h
23.01.2018 06:30 5,9 C 4,3 C 82 % 96 % 1021,8 hPa 0,2 l/m 16,1 km/h W-SW 247 3,7 C -2,3 C 22,5 km/h
23.01.2018 06:25 5,9 C 4,2 C 82 % 96 % 1021,9 hPa 0,0 l/m 16,1 km/h W-SW 247 3,6 C -2,5 C 19,3 km/h
23.01.2018 06:20 5,9 C 4,3 C 82 % 95 % 1021,8 hPa 0,0 l/m 16,1 km/h SW 225 3,6 C -2,3 C 20,9 km/h
23.01.2018 06:15 5,9 C 4,3 C 82 % 95 % 1021,7 hPa 0,0 l/m 14,5 km/h W-SW 247 3,6 C -1,5 C 19,3 km/h
23.01.2018 06:10 5,9 C 4,3 C 82 % 96 % 1021,7 hPa 0,0 l/m 14,5 km/h W-SW 247 3,7 C -1,5 C 20,9 km/h
23.01.2018 06:05 5,9 C 4,3 C 82 % 95 % 1021,7 hPa 0,0 l/m 14,5 km/h W-SW 247 3,6 C -1,5 C 19,3 km/h
23.01.2018 06:00 5,9 C 4,3 C 82 % 95 % 1021,7 hPa 0,0 l/m 14,5 km/h W-SW 247 3,6 C -1,5 C 17,7 km/h
23.01.2018 05:55 5,9 C 4,3 C 82 % 95 % 1021,7 hPa 0,0 l/m 14,5 km/h W-SW 247 3,6 C -1,5 C 19,3 km/h
23.01.2018 05:50 5,9 C 4,3 C 82 % 95 % 1021,5 hPa 0,0 l/m 14,5 km/h W-SW 247 3,6 C -1,5 C 20,9 km/h
23.01.2018 05:45 5,9 C 4,3 C 82 % 95 % 1021,6 hPa 0,0 l/m 12,9 km/h W-SW 247 3,6 C -0,6 C 20,9 km/h
23.01.2018 05:40 5,9 C 4,3 C 82 % 95 % 1021,4 hPa 0,2 l/m 11,3 km/h W-SW 247 3,6 C 0,4 C 17,7 km/h
23.01.2018 05:35 5,9 C 4,4 C 82 % 95 % 1021,4 hPa 0,0 l/m 16,1 km/h W-SW 247 3,7 C -2,2 C 22,5 km/h
23.01.2018 05:30 5,9 C 4,4 C 82 % 95 % 1021,4 hPa 0,0 l/m 16,1 km/h W-SW 247 3,7 C -2,2 C 19,3 km/h
23.01.2018 05:25 5,9 C 4,4 C 82 % 95 % 1021,4 hPa 0,2 l/m 14,5 km/h W-SW 247 3,7 C -1,4 C 17,7 km/h
23.01.2018 05:20 6,0 C 4,4 C 82 % 95 % 1021,4 hPa 0,0 l/m 14,5 km/h W-SW 247 3,7 C -1,4 C 19,3 km/h
23.01.2018 05:15 5,9 C 4,4 C 82 % 95 % 1021,4 hPa 0,2 l/m 14,5 km/h W-SW 247 3,7 C -1,4 C 20,9 km/h
23.01.2018 05:10 5,9 C 4,4 C 82 % 95 % 1021,3 hPa 0,0 l/m 16,1 km/h W-SW 247 3,7 C -2,2 C 22,5 km/h
23.01.2018 05:05 5,9 C 4,4 C 82 % 95 % 1021,3 hPa 0,2 l/m 16,1 km/h SW 225 3,7 C -2,2 C 20,9 km/h
23.01.2018 05:00 5,9 C 4,4 C 82 % 95 % 1021,2 hPa 0,2 l/m 16,1 km/h W-SW 247 3,7 C -2,2 C 20,9 km/h
23.01.2018 04:55 6,0 C 4,4 C 82 % 95 % 1021,2 hPa 0,2 l/m 16,1 km/h SW 225 3,7 C -2,2 C 20,9 km/h
23.01.2018 04:50 5,9 C 4,4 C 81 % 95 % 1021,2 hPa 0,0 l/m 16,1 km/h SW 225 3,7 C -2,2 C 19,3 km/h
23.01.2018 04:45 6,0 C 4,4 C 82 % 95 % 1021,0 hPa 0,2 l/m 17,7 km/h SW 225 3,7 C -3,0 C 24,1 km/h
23.01.2018 04:40 6,0 C 4,4 C 82 % 95 % 1021,0 hPa 0,0 l/m 16,1 km/h SW 225 3,7 C -2,2 C 20,9 km/h
23.01.2018 04:35 6,0 C 4,4 C 82 % 95 % 1020,9 hPa 0,0 l/m 16,1 km/h SW 225 3,7 C -2,2 C 20,9 km/h
23.01.2018 04:30 6,0 C 4,4 C 82 % 96 % 1021,0 hPa 0,0 l/m 16,1 km/h SW 225 3,8 C -2,2 C 22,5 km/h
23.01.2018 04:25 6,0 C 4,4 C 82 % 96 % 1021,0 hPa 0,0 l/m 12,9 km/h SW 225 3,8 C -0,5 C 17,7 km/h
23.01.2018 04:20 6,0 C 4,4 C 82 % 96 % 1021,0 hPa 0,0 l/m 11,3 km/h SW 225 3,8 C 0,5 C 19,3 km/h
23.01.2018 04:15 6,0 C 4,4 C 82 % 96 % 1021,0 hPa 0,2 l/m 14,5 km/h W-SW 247 3,8 C -1,4 C 17,7 km/h
23.01.2018 04:10 6,0 C 4,4 C 82 % 96 % 1020,8 hPa 0,2 l/m 12,9 km/h W-SW 247 3,8 C -0,5 C 19,3 km/h
23.01.2018 04:05 6,0 C 4,4 C 82 % 96 % 1020,7 hPa 0,0 l/m 12,9 km/h SW 225 3,8 C -0,5 C 17,7 km/h
23.01.2018 04:00 6,0 C 4,4 C 81 % 96 % 1020,5 hPa 0,0 l/m 11,3 km/h SW 225 3,8 C 0,5 C 17,7 km/h
23.01.2018 03:55 6,0 C 4,5 C 81 % 95 % 1020,5 hPa 0,2 l/m 14,5 km/h SW 225 3,8 C -1,3 C 19,3 km/h
23.01.2018 03:50 6,0 C 4,5 C 81 % 95 % 1020,5 hPa 0,0 l/m 14,5 km/h SW 225 3,8 C -1,3 C 20,9 km/h
23.01.2018 03:45 5,9 C 4,5 C 82 % 95 % 1020,4 hPa 0,0 l/m 14,5 km/h SW 225 3,8 C -1,3 C 17,7 km/h
23.01.2018 03:40 6,0 C 4,4 C 81 % 95 % 1020,4 hPa 0,0 l/m 12,9 km/h SW 225 3,7 C -0,5 C 17,7 km/h
23.01.2018 03:35 6,0 C 4,5 C 82 % 95 % 1020,3 hPa 0,0 l/m 12,9 km/h SW 225 3,8 C -0,4 C 17,7 km/h
23.01.2018 03:30 6,0 C 4,6 C 82 % 95 % 1020,3 hPa 0,0 l/m 12,9 km/h SW 225 3,9 C -0,2 C 19,3 km/h
23.01.2018 03:25 6,0 C 4,6 C 81 % 94 % 1020,2 hPa 0,0 l/m 14,5 km/h W-SW 247 3,7 C -1,1 C 19,3 km/h
23.01.2018 03:20 6,0 C 4,6 C 81 % 94 % 1020,0 hPa 0,0 l/m 17,7 km/h W-SW 247 3,7 C -2,7 C 20,9 km/h
23.01.2018 03:15 6,0 C 4,5 C 82 % 94 % 1020,1 hPa 0,0 l/m 14,5 km/h W-SW 247 3,6 C -1,3 C 17,7 km/h
23.01.2018 03:10 6,1 C 4,5 C 82 % 95 % 1020,1 hPa 0,0 l/m 16,1 km/h W-SW 247 3,8 C -2,1 C 19,3 km/h
23.01.2018 03:05 6,1 C 4,4 C 82 % 95 % 1019,8 hPa 0,0 l/m 14,5 km/h W-SW 247 3,7 C -1,4 C 20,9 km/h
23.01.2018 03:00 6,1 C 4,5 C 82 % 94 % 1019,6 hPa 0,0 l/m 16,1 km/h SW 225 3,6 C -2,1 C 20,9 km/h
23.01.2018 02:55 6,1 C 4,6 C 81 % 94 % 1019,6 hPa 0,0 l/m 16,1 km/h W-SW 247 3,7 C -2,0 C 20,9 km/h
23.01.2018 02:50 6,1 C 4,6 C 81 % 94 % 1019,6 hPa 0,0 l/m 19,3 km/h W-SW 247 3,7 C -3,4 C 22,5 km/h
23.01.2018 02:45 6,1 C 4,6 C 81 % 94 % 1019,6 hPa 0,2 l/m 17,7 km/h W-SW 247 3,7 C -2,7 C 22,5 km/h
23.01.2018 02:40 6,1 C 4,7 C 81 % 94 % 1019,5 hPa 0,0 l/m 19,3 km/h W-SW 247 3,8 C -3,3 C 25,7 km/h
23.01.2018 02:35 6,1 C 4,7 C 81 % 94 % 1019,5 hPa 0,0 l/m 17,7 km/h W-SW 247 3,8 C -2,6 C 25,7 km/h
23.01.2018 02:30 6,1 C 4,8 C 81 % 93 % 1019,6 hPa 0,0 l/m 19,3 km/h W-SW 247 3,8 C -3,1 C 22,5 km/h
23.01.2018 02:25 6,1 C 4,8 C 81 % 93 % 1019,4 hPa 0,0 l/m 17,7 km/h W-SW 247 3,8 C -2,5 C 20,9 km/h
23.01.2018 02:20 6,1 C 4,9 C 81 % 92 % 1019,3 hPa 0,0 l/m 17,7 km/h W-SW 247 3,7 C -2,3 C 24,1 km/h
23.01.2018 02:15 6,1 C 4,9 C 81 % 92 % 1019,4 hPa 0,0 l/m 17,7 km/h W-SW 247 3,7 C -2,3 C 25,7 km/h
23.01.2018 02:10 6,1 C 5,0 C 81 % 92 % 1019,4 hPa 0,0 l/m 14,5 km/h W-SW 247 3,8 C -0,7 C 19,3 km/h
23.01.2018 02:05 6,1 C 5,1 C 81 % 91 % 1019,3 hPa 0,0 l/m 14,5 km/h W 270 3,8 C -0,5 C 22,5 km/h
23.01.2018 02:00 6,1 C 5,1 C 81 % 91 % 1019,2 hPa 0,0 l/m 16,1 km/h W 270 3,8 C -1,3 C 20,9 km/h
23.01.2018 01:55 6,1 C 5,1 C 81 % 91 % 1019,2 hPa 0,0 l/m 16,1 km/h W 270 3,8 C -1,3 C 20,9 km/h
23.01.2018 01:50 6,1 C 5,1 C 81 % 92 % 1019,2 hPa 0,0 l/m 16,1 km/h W 270 3,9 C -1,3 C 22,5 km/h
23.01.2018 01:45 6,1 C 5,1 C 81 % 92 % 1019,1 hPa 0,0 l/m 19,3 km/h W 270 3,9 C -2,8 C 25,7 km/h
23.01.2018 01:40 6,1 C 5,1 C 81 % 93 % 1019,0 hPa 0,0 l/m 17,7 km/h W 270 4,1 C -2,1 C 22,5 km/h
23.01.2018 01:35 6,1 C 5,1 C 81 % 93 % 1018,8 hPa 0,0 l/m 19,3 km/h W 270 4,1 C -2,8 C 24,1 km/h
23.01.2018 01:30 6,1 C 5,1 C 81 % 93 % 1018,7 hPa 0,0 l/m 17,7 km/h W-SW 247 4,1 C -2,1 C 20,9 km/h
23.01.2018 01:25 6,1 C 5,1 C 81 % 93 % 1018,7 hPa 0,0 l/m 20,9 km/h W 270 4,1 C -3,4 C 27,4 km/h
23.01.2018 01:20 6,1 C 5,1 C 81 % 93 % 1018,6 hPa 0,0 l/m 17,7 km/h W-SW 247 4,1 C -2,1 C 22,5 km/h
23.01.2018 01:15 6,1 C 5,1 C 81 % 93 % 1018,6 hPa 0,0 l/m 16,1 km/h W-SW 247 4,1 C -1,3 C 20,9 km/h
23.01.2018 01:10 6,1 C 5,1 C 81 % 93 % 1018,6 hPa 0,0 l/m 14,5 km/h W-SW 247 4,1 C -0,5 C 20,9 km/h
23.01.2018 01:05 6,1 C 5,1 C 81 % 93 % 1018,5 hPa 0,0 l/m 17,7 km/h W-SW 247 4,1 C -2,1 C 24,1 km/h
23.01.2018 01:00 6,1 C 5,2 C 81 % 93 % 1018,6 hPa 0,0 l/m 17,7 km/h W-SW 247 4,2 C -2,0 C 22,5 km/h
23.01.2018 00:55 6,1 C 5,2 C 81 % 93 % 1018,5 hPa 0,0 l/m 22,5 km/h W-SW 247 4,2 C -3,8 C 29,0 km/h
23.01.2018 00:50 6,1 C 5,1 C 81 % 93 % 1018,3 hPa 0,0 l/m 25,7 km/h W-SW 247 4,1 C -5,0 C 33,8 km/h
23.01.2018 00:45 6,1 C 5,1 C 81 % 93 % 1018,2 hPa 0,0 l/m 24,1 km/h W-SW 247 4,1 C -4,5 C 35,4 km/h
23.01.2018 00:40 6,1 C 5,1 C 81 % 93 % 1018,0 hPa 0,0 l/m 20,9 km/h W-SW 247 4,1 C -3,4 C 35,4 km/h
23.01.2018 00:35 6,1 C 5,1 C 81 % 93 % 1018,1 hPa 0,0 l/m 14,5 km/h W-SW 247 4,1 C -0,5 C 20,9 km/h
23.01.2018 00:30 6,0 C 5,1 C 81 % 93 % 1018,2 hPa 0,0 l/m 9,7 km/h W-SW 247 4,1 C 2,4 C 16,1 km/h
23.01.2018 00:25 6,0 C 5,2 C 81 % 93 % 1018,1 hPa 0,2 l/m 16,1 km/h W-SW 247 4,2 C -1,2 C 20,9 km/h
23.01.2018 00:20 6,0 C 5,1 C 81 % 93 % 1018,0 hPa 0,0 l/m 17,7 km/h W-SW 247 4,1 C -2,1 C 22,5 km/h
23.01.2018 00:15 5,9 C 5,1 C 81 % 93 % 1018,0 hPa 0,0 l/m 17,7 km/h W-SW 247 4,1 C -2,1 C 24,1 km/h
23.01.2018 00:10 5,9 C 5,1 C 81 % 93 % 1017,8 hPa 0,0 l/m 20,9 km/h W-SW 247 4,1 C -3,4 C 25,7 km/h
23.01.2018 00:05 6,0 C 5,1 C 81 % 93 % 1017,6 hPa 0,0 l/m 20,9 km/h W-SW 247 4,1 C -3,4 C 29,0 km/h
23.01.2018 00:00 5,9 C 5,1 C 81 % 93 % 1017,7 hPa 0,0 l/m 20,9 km/h W-SW 247 4,1 C -3,4 C 24,1 km/h
22.01.2018 23:55 5,9 C 5,1 C 81 % 93 % 1017,5 hPa 0,0 l/m 19,3 km/h W-SW 247 4,1 C -2,8 C 25,7 km/h
22.01.2018 23:50 6,0 C 5,1 C 81 % 93 % 1017,6 hPa 0,0 l/m 20,9 km/h W-SW 247 4,1 C -3,4 C 25,7 km/h
22.01.2018 23:45 5,9 C 5,0 C 81 % 93 % 1017,4 hPa 0,0 l/m 20,9 km/h W-SW 247 4,0 C -3,5 C 32,2 km/h
22.01.2018 23:40 5,9 C 4,9 C 80 % 93 % 1017,5 hPa 0,0 l/m 17,7 km/h SW 225 3,9 C -2,3 C 22,5 km/h
22.01.2018 23:35 5,9 C 4,9 C 80 % 93 % 1017,5 hPa 0,0 l/m 19,3 km/h W-SW 247 3,9 C -3,0 C 25,7 km/h
22.01.2018 23:30 5,9 C 4,9 C 81 % 93 % 1017,3 hPa 0,0 l/m 16,1 km/h W-SW 247 3,9 C -1,6 C 24,1 km/h
22.01.2018 23:25 5,9 C 5,0 C 81 % 92 % 1017,1 hPa 0,0 l/m 19,3 km/h W-SW 247 3,8 C -2,9 C 22,5 km/h
22.01.2018 23:20 5,9 C 5,0 C 81 % 91 % 1016,9 hPa 0,0 l/m 22,5 km/h W-SW 247 3,7 C -4,1 C 27,4 km/h
22.01.2018 23:15 5,9 C 4,9 C 81 % 92 % 1016,9 hPa 0,0 l/m 20,9 km/h W-SW 247 3,7 C -3,7 C 25,7 km/h
22.01.2018 23:10 5,9 C 5,0 C 81 % 92 % 1016,9 hPa 0,0 l/m 19,3 km/h W-SW 247 3,8 C -2,9 C 25,7 km/h
22.01.2018 23:05 5,9 C 4,9 C 80 % 93 % 1016,9 hPa 0,0 l/m 19,3 km/h W-SW 247 3,9 C -3,0 C 25,7 km/h
22.01.2018 23:00 5,8 C 5,0 C 80 % 93 % 1016,8 hPa 0,0 l/m 19,3 km/h W-SW 247 4,0 C -2,9 C 24,1 km/h
22.01.2018 22:55 5,8 C 5,0 C 80 % 93 % 1016,8 hPa 0,0 l/m 19,3 km/h W-SW 247 4,0 C -2,9 C 25,7 km/h
22.01.2018 22:50 5,8 C 4,9 C 80 % 93 % 1016,6 hPa 0,0 l/m 20,9 km/h W-SW 247 3,9 C -3,7 C 27,4 km/h
22.01.2018 22:45 5,8 C 4,9 C 80 % 94 % 1016,6 hPa 0,0 l/m 19,3 km/h W-SW 247 4,0 C -3,0 C 25,7 km/h
22.01.2018 22:40 5,8 C 4,9 C 80 % 93 % 1016,6 hPa 0,0 l/m 17,7 km/h W-SW 247 3,9 C -2,3 C 20,9 km/h
22.01.2018 22:35 5,8 C 4,9 C 80 % 93 % 1016,4 hPa 0,0 l/m 17,7 km/h W-SW 247 3,9 C -2,3 C 22,5 km/h
22.01.2018 22:30 5,8 C 4,9 C 80 % 93 % 1016,4 hPa 0,0 l/m 17,7 km/h W-SW 247 3,9 C -2,3 C 24,1 km/h
22.01.2018 22:25 5,8 C 4,8 C 79 % 92 % 1016,3 hPa 0,0 l/m 16,1 km/h W-SW 247 3,6 C -1,7 C 19,3 km/h
22.01.2018 22:20 5,8 C 4,7 C 79 % 93 % 1016,3 hPa 0,0 l/m 9,7 km/h W-SW 247 3,7 C 2,0 C 16,1 km/h
22.01.2018 22:15 5,8 C 4,8 C 79 % 92 % 1016,4 hPa 0,0 l/m 8,0 km/h W 270 3,6 C 3,4 C 16,1 km/h
22.01.2018 22:10 5,8 C 4,8 C 79 % 91 % 1015,9 hPa 0,0 l/m 14,5 km/h W-SW 247 3,5 C -0,9 C 17,7 km/h
22.01.2018 22:05 5,8 C 4,7 C 79 % 91 % 1015,9 hPa 0,0 l/m 12,9 km/h W-SW 247 3,4 C -0,1 C 19,3 km/h
22.01.2018 22:00 5,8 C 4,6 C 80 % 91 % 1015,8 hPa 0,0 l/m 14,5 km/h W-SW 247 3,3 C -1,1 C 17,7 km/h
22.01.2018 21:55 5,8 C 4,6 C 80 % 92 % 1015,8 hPa 0,0 l/m 12,9 km/h W-SW 247 3,4 C -0,2 C 16,1 km/h
22.01.2018 21:50 5,8 C 4,4 C 79 % 92 % 1015,5 hPa 0,0 l/m 12,9 km/h SW 225 3,2 C -0,5 C 16,1 km/h
22.01.2018 21:45 5,8 C 4,4 C 79 % 92 % 1015,6 hPa 0,0 l/m 12,9 km/h SW 225 3,2 C -0,5 C 17,7 km/h
22.01.2018 21:40 5,8 C 4,4 C 79 % 92 % 1015,6 hPa 0,0 l/m 12,9 km/h W-SW 247 3,2 C -0,5 C 17,7 km/h
22.01.2018 21:35 5,9 C 4,6 C 79 % 91 % 1015,8 hPa 0,2 l/m 8,0 km/h NW 315 3,3 C 3,2 C 14,5 km/h
22.01.2018 21:30 5,9 C 4,7 C 80 % 92 % 1015,9 hPa 0,0 l/m 3,2 km/h W-NW 292 3,5 C 4,7 C 6,4 km/h
22.01.2018 21:25 5,9 C 4,7 C 80 % 92 % 1015,6 hPa 0,0 l/m 3,2 km/h NW 315 3,5 C 4,7 C 6,4 km/h
22.01.2018 21:20 5,9 C 4,8 C 79 % 92 % 1015,4 hPa 0,0 l/m 6,4 km/h W-NW 292 3,6 C 4,8 C 11,3 km/h
22.01.2018 21:15 5,8 C 4,8 C 79 % 92 % 1015,4 hPa 0,0 l/m 8,0 km/h W-NW 292 3,6 C 3,4 C 11,3 km/h
22.01.2018 21:10 5,8 C 4,8 C 79 % 92 % 1015,2 hPa 0,0 l/m 14,5 km/h W-SW 247 3,6 C -0,9 C 19,3 km/h
22.01.2018 21:05 5,8 C 4,9 C 79 % 92 % 1015,0 hPa 0,0 l/m 14,5 km/h W-SW 247 3,7 C -0,8 C 20,9 km/h
22.01.2018 21:00 5,8 C 4,9 C 79 % 92 % 1015,0 hPa 0,0 l/m 16,1 km/h W-SW 247 3,7 C -1,6 C 22,5 km/h
22.01.2018 20:55 5,8 C 4,8 C 79 % 92 % 1015,0 hPa 0,0 l/m 12,9 km/h W-SW 247 3,6 C -0,0 C 20,9 km/h
22.01.2018 20:50 5,8 C 4,8 C 79 % 93 % 1014,8 hPa 0,0 l/m 6,4 km/h W-SW 247 3,8 C 4,8 C 9,7 km/h
22.01.2018 20:45 5,8 C 4,7 C 79 % 92 % 1014,7 hPa 0,0 l/m 6,4 km/h W-SW 247 3,5 C 4,7 C 11,3 km/h
22.01.2018 20:40 5,8 C 4,8 C 79 % 92 % 1014,7 hPa 0,0 l/m 9,7 km/h W-NW 292 3,6 C 2,1 C 14,5 km/h
22.01.2018 20:35 5,8 C 4,8 C 79 % 92 % 1014,7 hPa 0,0 l/m 12,9 km/h W 270 3,6 C -0,0 C 20,9 km/h
22.01.2018 20:30 5,8 C 4,8 C 79 % 92 % 1014,5 hPa 0,0 l/m 12,9 km/h W-SW 247 3,6 C -0,0 C 20,9 km/h
22.01.2018 20:25 5,8 C 4,8 C 79 % 92 % 1014,3 hPa 0,0 l/m 9,7 km/h W 270 3,6 C 2,1 C 14,5 km/h
22.01.2018 20:20 5,8 C 4,8 C 79 % 91 % 1014,3 hPa 0,0 l/m 8,0 km/h W-NW 292 3,5 C 3,4 C 12,9 km/h
22.01.2018 20:15 5,8 C 5,0 C 79 % 90 % 1014,1 hPa 0,0 l/m 16,1 km/h W-NW 292 3,5 C -1,5 C 24,1 km/h
22.01.2018 20:10 5,8 C 4,9 C 79 % 90 % 1013,7 hPa 0,2 l/m 19,3 km/h W 270 3,4 C -3,0 C 29,0 km/h
22.01.2018 20:05 5,8 C 5,0 C 79 % 91 % 1013,6 hPa 0,0 l/m 19,3 km/h W-SW 247 3,7 C -2,9 C 35,4 km/h
22.01.2018 20:00 5,8 C 4,8 C 79 % 93 % 1013,7 hPa 0,2 l/m 14,5 km/h W-SW 247 3,8 C -0,9 C 29,0 km/h
22.01.2018 19:55 5,8 C 4,7 C 79 % 93 % 1013,7 hPa 0,0 l/m 8,0 km/h W-SW 247 3,7 C 3,3 C 14,5 km/h
22.01.2018 19:50 5,8 C 4,7 C 79 % 93 % 1013,7 hPa 0,0 l/m 3,2 km/h W 270 3,7 C 4,7 C 6,4 km/h
22.01.2018 19:45 5,8 C 4,8 C 79 % 92 % 1013,6 hPa 0,0 l/m 3,2 km/h W 270 3,6 C 4,8 C 6,4 km/h
22.01.2018 19:40 5,8 C 4,8 C 79 % 92 % 1013,5 hPa 0,0 l/m 4,8 km/h W 270 3,6 C 4,8 C 6,4 km/h
22.01.2018 19:35 5,8 C 4,8 C 79 % 91 % 1013,5 hPa 0,0 l/m 8,0 km/h W-NW 292 3,5 C 3,4 C 12,9 km/h
22.01.2018 19:30 5,8 C 4,9 C 79 % 91 % 1013,3 hPa 0,0 l/m 8,0 km/h W-NW 292 3,6 C 3,5 C 12,9 km/h
22.01.2018 19:25 5,8 C 4,9 C 79 % 91 % 1013,1 hPa 0,0 l/m 11,3 km/h W-NW 292 3,6 C 1,1 C 16,1 km/h
22.01.2018 19:20 5,8 C 5,0 C 79 % 91 % 1013,1 hPa 0,0 l/m 14,5 km/h W 270 3,7 C -0,7 C 19,3 km/h
22.01.2018 19:15 5,7 C 5,1 C 79 % 91 % 1012,9 hPa 0,0 l/m 14,5 km/h W 270 3,8 C -0,5 C 19,3 km/h
22.01.2018 19:10 5,7 C 5,1 C 79 % 92 % 1013,0 hPa 0,2 l/m 9,7 km/h W-NW 292 3,9 C 2,4 C 17,7 km/h
22.01.2018 19:05 5,7 C 5,1 C 79 % 93 % 1012,9 hPa 0,0 l/m 8,0 km/h W 270 4,1 C 3,7 C 12,9 km/h
22.01.2018 19:00 5,7 C 5,0 C 78 % 94 % 1012,9 hPa 0,0 l/m 9,7 km/h W 270 4,1 C 2,3 C 12,9 km/h
_ Min-Zeit 19:00 06:25 14:30 14:20 19:00 - 19:45 - - 21:40 00:50 19:40
Minimum _ 5,7 C 4,2 C 73 % 82 % 1012,9 hPa - 3,2 km/h - - 3,2 C -5,0 C 6,4 km/h
_ Max-Zeit 14:20 14:15 03:00 04:00 11:05 19:10 00:50 - - 16:20 11:55 20:05
Maximum _ 9,1 C 6,8 C 82 % 96 % 1024,5 hPa 0,2 l/m 25,7 km/h
W-SW
- - 4,4 C 5,4 C 35,4 km/h
W-SW
Durchschnitt _ 6,8 C 5,2 C 79 % 91 % 1020,2 hPa #3,4 l/m 13,7 km/h W-SW - 3,8 C 0,3 C 19,2 km/h